sensor_id;sensor_type;location;lat;lon;timestamp;pressure;altitude;pressure_sealevel;temperature;humidity
50349;BME280;36250;48.740;22.174;2022-07-26T00:00:56;99754.72;;;20.54;59.97
50349;BME280;36250;48.740;22.174;2022-07-26T00:03:21;99757.66;;;20.52;59.96
50349;BME280;36250;48.740;22.174;2022-07-26T00:05:46;99756.06;;;20.51;59.75
50349;BME280;36250;48.740;22.174;2022-07-26T00:08:11;99754.97;;;20.47;60.09
50349;BME280;36250;48.740;22.174;2022-07-26T00:10:41;99754.44;;;20.45;59.63
50349;BME280;36250;48.740;22.174;2022-07-26T00:13:07;99746.91;;;20.42;59.92
50349;BME280;36250;48.740;22.174;2022-07-26T00:15:32;99742.34;;;20.43;59.51
50349;BME280;36250;48.740;22.174;2022-07-26T00:17:57;99733.22;;;20.44;59.58
50349;BME280;36250;48.740;22.174;2022-07-26T00:20:23;99734.00;;;20.39;59.67
50349;BME280;36250;48.740;22.174;2022-07-26T00:22:48;99731.56;;;20.37;59.43
50349;BME280;36250;48.740;22.174;2022-07-26T00:25:13;99741.53;;;20.32;59.87
50349;BME280;36250;48.740;22.174;2022-07-26T00:27:38;99748.50;;;20.27;59.64
50349;BME280;36250;48.740;22.174;2022-07-26T00:30:04;99747.16;;;20.35;59.56
50349;BME280;36250;48.740;22.174;2022-07-26T00:32:30;99738.31;;;20.35;60.16
50349;BME280;36250;48.740;22.174;2022-07-26T00:34:56;99740.16;;;20.29;60.63
50349;BME280;36250;48.740;22.174;2022-07-26T00:37:21;99742.03;;;20.18;61.03
50349;BME280;36250;48.740;22.174;2022-07-26T00:39:47;99736.63;;;20.08;60.75
50349;BME280;36250;48.740;22.174;2022-07-26T00:42:12;99745.22;;;20.05;60.56
50349;BME280;36250;48.740;22.174;2022-07-26T00:44:39;99735.84;;;20.02;60.44
50349;BME280;36250;48.740;22.174;2022-07-26T00:47:04;99744.16;;;20.01;61.47
50349;BME280;36250;48.740;22.174;2022-07-26T00:49:30;99742.47;;;19.79;62.30
50349;BME280;36250;48.740;22.174;2022-07-26T00:51:55;99737.00;;;19.63;63.21
50349;BME280;36250;48.740;22.174;2022-07-26T00:54:20;99743.91;;;19.44;64.06
50349;BME280;36250;48.740;22.174;2022-07-26T00:56:45;99740.59;;;19.31;64.67
50349;BME280;36250;48.740;22.174;2022-07-26T00:59:11;99740.56;;;19.21;65.31
50349;BME280;36250;48.740;22.174;2022-07-26T01:01:36;99741.56;;;19.09;66.12
50349;BME280;36250;48.740;22.174;2022-07-26T01:04:02;99742.34;;;19.05;66.64
50349;BME280;36250;48.740;22.174;2022-07-26T01:06:27;99735.56;;;18.97;67.28
50349;BME280;36250;48.740;22.174;2022-07-26T01:08:52;99735.78;;;18.90;67.45
50349;BME280;36250;48.740;22.174;2022-07-26T01:11:17;99736.84;;;18.89;67.78
50349;BME280;36250;48.740;22.174;2022-07-26T01:13:46;99736.56;;;18.91;67.92
50349;BME280;36250;48.740;22.174;2022-07-26T01:16:11;99740.84;;;18.87;68.27
50349;BME280;36250;48.740;22.174;2022-07-26T01:18:37;99742.41;;;18.82;68.82
50349;BME280;36250;48.740;22.174;2022-07-26T01:21:02;99741.63;;;18.82;68.78
50349;BME280;36250;48.740;22.174;2022-07-26T01:23:28;99748.34;;;18.85;68.88
50349;BME280;36250;48.740;22.174;2022-07-26T01:25:55;99740.72;;;18.71;69.61
50349;BME280;36250;48.740;22.174;2022-07-26T01:28:20;99742.78;;;18.59;70.30
50349;BME280;36250;48.740;22.174;2022-07-26T01:30:46;99742.91;;;18.42;71.19
50349;BME280;36250;48.740;22.174;2022-07-26T01:33:11;99746.44;;;18.20;71.89
50349;BME280;36250;48.740;22.174;2022-07-26T01:35:36;99748.88;;;17.99;72.90
50349;BME280;36250;48.740;22.174;2022-07-26T01:38:02;99753.59;;;17.92;72.99
50349;BME280;36250;48.740;22.174;2022-07-26T01:40:27;99750.63;;;17.88;73.13
50349;BME280;36250;48.740;22.174;2022-07-26T01:42:52;99747.94;;;17.88;72.95
50349;BME280;36250;48.740;22.174;2022-07-26T01:45:17;99757.34;;;17.91;72.81
50349;BME280;36250;48.740;22.174;2022-07-26T01:47:42;99750.13;;;17.91;73.70
50349;BME280;36250;48.740;22.174;2022-07-26T01:50:09;99744.25;;;17.94;72.95
50349;BME280;36250;48.740;22.174;2022-07-26T01:52:34;99741.34;;;17.96;72.56
50349;BME280;36250;48.740;22.174;2022-07-26T01:54:59;99746.44;;;17.98;72.41
50349;BME280;36250;48.740;22.174;2022-07-26T01:57:25;99746.44;;;17.98;72.69
50349;BME280;36250;48.740;22.174;2022-07-26T01:59:50;99742.22;;;18.02;72.78
50349;BME280;36250;48.740;22.174;2022-07-26T02:02:15;99747.00;;;18.00;72.94
50349;BME280;36250;48.740;22.174;2022-07-26T02:04:40;99745.47;;;18.04;72.73
50349;BME280;36250;48.740;22.174;2022-07-26T02:07:24;99747.41;;;18.08;71.73
50349;BME280;36250;48.740;22.174;2022-07-26T02:09:49;99741.78;;;18.10;71.05
50349;BME280;36250;48.740;22.174;2022-07-26T02:12:14;99749.00;;;18.09;71.44
50349;BME280;36250;48.740;22.174;2022-07-26T02:14:40;99745.00;;;18.12;71.08
50349;BME280;36250;48.740;22.174;2022-07-26T02:17:05;99740.78;;;18.16;70.84
50349;BME280;36250;48.740;22.174;2022-07-26T02:19:31;99743.47;;;18.16;71.75
50349;BME280;36250;48.740;22.174;2022-07-26T02:21:56;99745.72;;;17.80;72.61
50349;BME280;36250;48.740;22.174;2022-07-26T02:24:22;99747.13;;;17.65;73.42
50349;BME280;36250;48.740;22.174;2022-07-26T02:26:47;99748.50;;;17.68;73.23
50349;BME280;36250;48.740;22.174;2022-07-26T02:29:12;99742.34;;;17.67;73.27
50349;BME280;36250;48.740;22.174;2022-07-26T02:31:37;99732.63;;;17.61;73.50
50349;BME280;36250;48.740;22.174;2022-07-26T02:34:02;99735.81;;;17.58;73.75
50349;BME280;36250;48.740;22.174;2022-07-26T02:36:28;99743.34;;;17.61;74.11
50349;BME280;36250;48.740;22.174;2022-07-26T02:38:53;99742.28;;;17.62;73.80
50349;BME280;36250;48.740;22.174;2022-07-26T02:41:18;99742.66;;;17.71;73.47
50349;BME280;36250;48.740;22.174;2022-07-26T02:43:43;99743.03;;;17.80;73.53
50349;BME280;36250;48.740;22.174;2022-07-26T02:46:09;99737.91;;;17.78;73.81
50349;BME280;36250;48.740;22.174;2022-07-26T02:48:34;99737.91;;;17.78;73.44
50349;BME280;36250;48.740;22.174;2022-07-26T02:51:00;99731.25;;;17.81;73.08
50349;BME280;36250;48.740;22.174;2022-07-26T02:53:25;99733.13;;;17.80;74.03
50349;BME280;36250;48.740;22.174;2022-07-26T02:55:50;99726.91;;;17.75;72.92
50349;BME280;36250;48.740;22.174;2022-07-26T02:58:15;99729.00;;;17.73;73.52
50349;BME280;36250;48.740;22.174;2022-07-26T03:00:41;99723.34;;;17.69;73.88
50349;BME280;36250;48.740;22.174;2022-07-26T03:03:06;99729.59;;;17.75;73.72
50349;BME280;36250;48.740;22.174;2022-07-26T03:05:31;99733.94;;;17.81;73.34
50349;BME280;36250;48.740;22.174;2022-07-26T03:07:57;99727.31;;;17.89;72.87
50349;BME280;36250;48.740;22.174;2022-07-26T03:10:22;99729.00;;;17.95;72.73
50349;BME280;36250;48.740;22.174;2022-07-26T03:12:48;99720.72;;;17.96;73.09
50349;BME280;36250;48.740;22.174;2022-07-26T03:15:13;99728.81;;;18.02;73.15
50349;BME280;36250;48.740;22.174;2022-07-26T03:17:38;99720.03;;;18.06;73.04
50349;BME280;36250;48.740;22.174;2022-07-26T03:20:04;99731.06;;;18.10;72.72
50349;BME280;36250;48.740;22.174;2022-07-26T03:22:29;99729.19;;;18.10;72.34
50349;BME280;36250;48.740;22.174;2022-07-26T03:24:54;99726.00;;;18.14;71.81
50349;BME280;36250;48.740;22.174;2022-07-26T03:27:20;99721.53;;;18.19;70.70
50349;BME280;36250;48.740;22.174;2022-07-26T03:29:45;99713.53;;;18.24;70.31
50349;BME280;36250;48.740;22.174;2022-07-26T03:32:10;99717.81;;;18.26;69.49
50349;BME280;36250;48.740;22.174;2022-07-26T03:34:35;99716.16;;;18.19;69.13
50349;BME280;36250;48.740;22.174;2022-07-26T03:37:01;99716.59;;;18.11;69.11
50349;BME280;36250;48.740;22.174;2022-07-26T03:39:26;99716.53;;;18.06;69.23
50349;BME280;36250;48.740;22.174;2022-07-26T03:41:51;99717.66;;;18.10;69.25
50349;BME280;36250;48.740;22.174;2022-07-26T03:44:16;99718.53;;;18.16;69.27
50349;BME280;36250;48.740;22.174;2022-07-26T03:46:42;99722.81;;;18.17;69.46
50349;BME280;36250;48.740;22.174;2022-07-26T03:49:07;99719.91;;;18.18;68.73
50349;BME280;36250;48.740;22.174;2022-07-26T03:51:32;99725.03;;;18.25;67.97
50349;BME280;36250;48.740;22.174;2022-07-26T03:53:58;99722.72;;;18.34;68.48
50349;BME280;36250;48.740;22.174;2022-07-26T03:56:23;99731.63;;;18.39;67.44
50349;BME280;36250;48.740;22.174;2022-07-26T03:58:58;99713.44;;;18.47;68.09
50349;BME280;36250;48.740;22.174;2022-07-26T04:01:23;99719.59;;;18.47;67.23
50349;BME280;36250;48.740;22.174;2022-07-26T04:03:48;99717.22;;;18.51;67.22
50349;BME280;36250;48.740;22.174;2022-07-26T04:06:14;99717.03;;;18.58;67.15
50349;BME280;36250;48.740;22.174;2022-07-26T04:08:39;99717.34;;;18.66;68.18
50349;BME280;36250;48.740;22.174;2022-07-26T04:11:04;99718.78;;;18.79;66.90
50349;BME280;36250;48.740;22.174;2022-07-26T04:13:29;99726.34;;;18.88;66.44
50349;BME280;36250;48.740;22.174;2022-07-26T04:15:55;99718.09;;;18.94;65.99
50349;BME280;36250;48.740;22.174;2022-07-26T04:18:20;99715.75;;;18.98;65.41
50349;BME280;36250;48.740;22.174;2022-07-26T04:20:45;99705.47;;;18.95;66.23
50349;BME280;36250;48.740;22.174;2022-07-26T04:23:11;99708.72;;;18.97;66.88
50349;BME280;36250;48.740;22.174;2022-07-26T04:25:36;99713.63;;;19.05;66.01
50349;BME280;36250;48.740;22.174;2022-07-26T04:28:01;99710.47;;;19.14;65.89
50349;BME280;36250;48.740;22.174;2022-07-26T04:30:27;99723.34;;;19.17;66.64
50349;BME280;36250;48.740;22.174;2022-07-26T04:32:52;99709.97;;;19.22;65.47
50349;BME280;36250;48.740;22.174;2022-07-26T04:35:17;99712.41;;;19.29;64.91
50349;BME280;36250;48.740;22.174;2022-07-26T04:37:43;99714.28;;;19.28;65.67
50349;BME280;36250;48.740;22.174;2022-07-26T04:40:09;99711.34;;;19.30;65.41
50349;BME280;36250;48.740;22.174;2022-07-26T04:42:35;99707.88;;;19.34;65.00
50349;BME280;36250;48.740;22.174;2022-07-26T04:45:00;99709.25;;;19.42;64.28
50349;BME280;36250;48.740;22.174;2022-07-26T04:47:26;99705.81;;;19.57;64.43
50349;BME280;36250;48.740;22.174;2022-07-26T04:49:52;99706.16;;;19.71;63.88
50349;BME280;36250;48.740;22.174;2022-07-26T04:52:17;99710.22;;;19.89;64.01
50349;BME280;36250;48.740;22.174;2022-07-26T04:54:42;99700.84;;;19.97;62.36
50349;BME280;36250;48.740;22.174;2022-07-26T04:57:07;99699.28;;;20.01;62.75
50349;BME280;36250;48.740;22.174;2022-07-26T04:59:32;99705.47;;;20.12;64.62
50349;BME280;36250;48.740;22.174;2022-07-26T05:01:58;99695.00;;;20.16;65.43
50349;BME280;36250;48.740;22.174;2022-07-26T05:04:23;99694.44;;;20.19;66.26
50349;BME280;36250;48.740;22.174;2022-07-26T05:06:48;99683.16;;;20.27;65.65
50349;BME280;36250;48.740;22.174;2022-07-26T05:09:13;99683.44;;;20.36;66.00
50349;BME280;36250;48.740;22.174;2022-07-26T05:11:39;99681.00;;;20.39;66.35
50349;BME280;36250;48.740;22.174;2022-07-26T05:14:04;99679.13;;;20.40;66.46
50349;BME280;36250;48.740;22.174;2022-07-26T05:16:29;99683.44;;;20.41;67.06
50349;BME280;36250;48.740;22.174;2022-07-26T05:18:55;99695.00;;;20.47;66.78
50349;BME280;36250;48.740;22.174;2022-07-26T05:21:20;99686.94;;;20.41;66.39
50349;BME280;36250;48.740;22.174;2022-07-26T05:23:45;99699.56;;;20.46;65.42
50349;BME280;36250;48.740;22.174;2022-07-26T05:26:11;99692.56;;;20.50;65.06
50349;BME280;36250;48.740;22.174;2022-07-26T05:28:39;99685.88;;;20.48;63.72
50349;BME280;36250;48.740;22.174;2022-07-26T05:31:04;99687.72;;;20.52;65.29
50349;BME280;36250;48.740;22.174;2022-07-26T05:33:30;99687.19;;;20.55;65.32
50349;BME280;36250;48.740;22.174;2022-07-26T05:35:55;99689.34;;;20.64;65.35
50349;BME280;36250;48.740;22.174;2022-07-26T05:38:20;99693.91;;;20.74;65.73
50349;BME280;36250;48.740;22.174;2022-07-26T05:40:45;99692.03;;;20.84;65.28
50349;BME280;36250;48.740;22.174;2022-07-26T05:43:11;99685.03;;;20.94;64.90
50349;BME280;36250;48.740;22.174;2022-07-26T05:45:36;99695.50;;;21.06;64.59
50349;BME280;36250;48.740;22.174;2022-07-26T05:48:01;99685.22;;;21.18;64.23
50349;BME280;36250;48.740;22.174;2022-07-26T05:50:26;99684.13;;;21.30;63.28
50349;BME280;36250;48.740;22.174;2022-07-26T05:52:52;99681.66;;;21.38;62.81
50349;BME280;36250;48.740;22.174;2022-07-26T05:55:18;99680.00;;;21.48;62.52
50349;BME280;36250;48.740;22.174;2022-07-26T05:57:43;99678.88;;;21.59;62.90
50349;BME280;36250;48.740;22.174;2022-07-26T06:00:11;99679.38;;;21.71;61.44
50349;BME280;36250;48.740;22.174;2022-07-26T06:02:37;99678.25;;;21.78;61.82
50349;BME280;36250;48.740;22.174;2022-07-26T06:05:02;99670.66;;;21.90;60.88
50349;BME280;36250;48.740;22.174;2022-07-26T06:07:27;99668.97;;;21.99;60.73
50349;BME280;36250;48.740;22.174;2022-07-26T06:09:53;99669.16;;;22.13;60.34
50349;BME280;36250;48.740;22.174;2022-07-26T06:12:18;99667.97;;;22.25;57.79
50349;BME280;36250;48.740;22.174;2022-07-26T06:14:43;99659.56;;;22.32;58.90
50349;BME280;36250;48.740;22.174;2022-07-26T06:17:09;99656.78;;;22.42;57.99
50349;BME280;36250;48.740;22.174;2022-07-26T06:19:34;99659.97;;;22.49;57.53
50349;BME280;36250;48.740;22.174;2022-07-26T06:21:59;99658.56;;;22.57;57.51
50349;BME280;36250;48.740;22.174;2022-07-26T06:24:25;99666.31;;;22.64;57.71
50349;BME280;36250;48.740;22.174;2022-07-26T06:26:50;99661.97;;;22.68;57.89
50349;BME280;36250;48.740;22.174;2022-07-26T06:29:17;99667.22;;;22.83;56.47
50349;BME280;36250;48.740;22.174;2022-07-26T06:31:42;99670.81;;;22.98;56.58
50349;BME280;36250;48.740;22.174;2022-07-26T06:34:07;99664.97;;;23.15;55.10
50349;BME280;36250;48.740;22.174;2022-07-26T06:36:33;99667.22;;;23.32;54.80
50349;BME280;36250;48.740;22.174;2022-07-26T06:38:58;99676.25;;;23.47;54.77
50349;BME280;36250;48.740;22.174;2022-07-26T06:41:23;99672.59;;;23.56;53.51
50349;BME280;36250;48.740;22.174;2022-07-26T06:43:48;99667.94;;;23.62;53.43
50349;BME280;36250;48.740;22.174;2022-07-26T06:46:14;99661.06;;;23.70;54.03
50349;BME280;36250;48.740;22.174;2022-07-26T06:48:40;99656.75;;;23.88;52.62
50349;BME280;36250;48.740;22.174;2022-07-26T06:51:05;99653.38;;;24.15;51.29
50349;BME280;36250;48.740;22.174;2022-07-26T06:53:34;99662.66;;;24.42;51.41
50349;BME280;36250;48.740;22.174;2022-07-26T06:55:59;99652.28;;;24.64;50.15
50349;BME280;36250;48.740;22.174;2022-07-26T06:58:24;99653.34;;;24.82;47.50
50349;BME280;36250;48.740;22.174;2022-07-26T07:00:49;99655.06;;;24.92;47.78
50349;BME280;36250;48.740;22.174;2022-07-26T07:03:15;99645.94;;;25.01;47.17
50349;BME280;36250;48.740;22.174;2022-07-26T07:05:40;99647.44;;;25.08;46.45
50349;BME280;36250;48.740;22.174;2022-07-26T07:08:06;99651.47;;;25.10;45.50
50349;BME280;36250;48.740;22.174;2022-07-26T07:10:31;99655.78;;;25.11;46.01
50349;BME280;36250;48.740;22.174;2022-07-26T07:12:56;99652.84;;;25.22;45.47
50349;BME280;36250;48.740;22.174;2022-07-26T07:15:22;99652.41;;;25.28;44.31
50349;BME280;36250;48.740;22.174;2022-07-26T07:17:47;99656.56;;;25.26;45.13
50349;BME280;36250;48.740;22.174;2022-07-26T07:20:12;99643.22;;;25.29;45.17
50349;BME280;36250;48.740;22.174;2022-07-26T07:22:37;99643.28;;;25.38;44.80
50349;BME280;36250;48.740;22.174;2022-07-26T07:25:03;99645.00;;;25.48;44.95
50349;BME280;36250;48.740;22.174;2022-07-26T07:27:28;99639.34;;;25.58;44.41
50349;BME280;36250;48.740;22.174;2022-07-26T07:29:53;99641.44;;;25.62;44.09
50349;BME280;36250;48.740;22.174;2022-07-26T07:32:18;99646.66;;;25.72;44.39
50349;BME280;36250;48.740;22.174;2022-07-26T07:34:44;99646.59;;;25.86;44.23
50349;BME280;36250;48.740;22.174;2022-07-26T07:37:09;99645.13;;;26.02;43.90
50349;BME280;36250;48.740;22.174;2022-07-26T07:39:36;99644.28;;;26.16;44.08
50349;BME280;36250;48.740;22.174;2022-07-26T07:42:01;99654.78;;;26.31;43.49
50349;BME280;36250;48.740;22.174;2022-07-26T07:44:26;99645.75;;;26.45;43.78
50349;BME280;36250;48.740;22.174;2022-07-26T07:46:51;99647.41;;;26.64;42.93
50349;BME280;36250;48.740;22.174;2022-07-26T07:49:17;99647.81;;;26.80;42.57
50349;BME280;36250;48.740;22.174;2022-07-26T07:51:42;99639.72;;;26.88;41.76
50349;BME280;36250;48.740;22.174;2022-07-26T07:54:07;99633.53;;;26.97;39.40
50349;BME280;36250;48.740;22.174;2022-07-26T07:56:33;99629.19;;;26.96;38.83
50349;BME280;36250;48.740;22.174;2022-07-26T07:58:58;99636.56;;;26.95;39.65
50349;BME280;36250;48.740;22.174;2022-07-26T08:01:23;99634.19;;;27.02;40.31
50349;BME280;36250;48.740;22.174;2022-07-26T08:03:49;99636.59;;;27.13;40.35
50349;BME280;36250;48.740;22.174;2022-07-26T08:06:14;99631.84;;;27.18;37.87
50349;BME280;36250;48.740;22.174;2022-07-26T08:08:39;99634.25;;;27.29;37.71
50349;BME280;36250;48.740;22.174;2022-07-26T08:11:05;99633.63;;;27.41;37.21
50349;BME280;36250;48.740;22.174;2022-07-26T08:13:30;99629.81;;;27.51;36.90
50349;BME280;36250;48.740;22.174;2022-07-26T08:15:55;99625.34;;;27.64;36.60
50349;BME280;36250;48.740;22.174;2022-07-26T08:18:21;99625.50;;;27.76;35.25
50349;BME280;36250;48.740;22.174;2022-07-26T08:20:46;99620.53;;;27.87;35.39
50349;BME280;36250;48.740;22.174;2022-07-26T08:23:12;99611.56;;;27.95;32.69
50349;BME280;36250;48.740;22.174;2022-07-26T08:25:37;99613.94;;;28.05;32.52
50349;BME280;36250;48.740;22.174;2022-07-26T08:28:02;99615.69;;;28.19;33.98
50349;BME280;36250;48.740;22.174;2022-07-26T08:30:28;99604.78;;;28.28;32.45
50349;BME280;36250;48.740;22.174;2022-07-26T08:32:53;99613.41;;;28.39;33.29
50349;BME280;36250;48.740;22.174;2022-07-26T08:35:18;99607.16;;;28.38;31.88
50349;BME280;36250;48.740;22.174;2022-07-26T08:37:45;99606.53;;;28.32;33.13
50349;BME280;36250;48.740;22.174;2022-07-26T08:40:10;99604.53;;;28.51;32.39
50349;BME280;36250;48.740;22.174;2022-07-26T08:42:35;99606.59;;;28.62;31.60
50349;BME280;36250;48.740;22.174;2022-07-26T08:45:01;99603.00;;;28.71;32.13
50349;BME280;36250;48.740;22.174;2022-07-26T08:47:26;99591.91;;;28.85;31.26
50349;BME280;36250;48.740;22.174;2022-07-26T08:49:51;99595.38;;;28.94;32.42
50349;BME280;36250;48.740;22.174;2022-07-26T08:52:16;99595.22;;;28.99;31.57
50349;BME280;36250;48.740;22.174;2022-07-26T08:54:46;99591.41;;;28.91;31.43
50349;BME280;36250;48.740;22.174;2022-07-26T08:57:11;99601.84;;;28.89;32.69
50349;BME280;36250;48.740;22.174;2022-07-26T08:59:37;99600.06;;;28.94;33.21
50349;BME280;36250;48.740;22.174;2022-07-26T09:02:04;99596.06;;;28.91;32.65
50349;BME280;36250;48.740;22.174;2022-07-26T09:04:31;99596.38;;;28.89;33.63
50349;BME280;36250;48.740;22.174;2022-07-26T09:06:58;99592.19;;;28.92;33.35
50349;BME280;36250;48.740;22.174;2022-07-26T09:09:24;99591.22;;;28.97;32.76
50349;BME280;36250;48.740;22.174;2022-07-26T09:11:49;99591.63;;;29.08;32.51
50349;BME280;36250;48.740;22.174;2022-07-26T09:14:14;99595.56;;;29.19;32.86
50349;BME280;36250;48.740;22.174;2022-07-26T09:16:40;99591.19;;;29.27;32.15
50349;BME280;36250;48.740;22.174;2022-07-26T09:19:13;99597.38;;;29.36;31.90
50349;BME280;36250;48.740;22.174;2022-07-26T09:21:39;99587.00;;;29.51;30.94
50349;BME280;36250;48.740;22.174;2022-07-26T09:24:05;99585.13;;;29.63;31.38
50349;BME280;36250;48.740;22.174;2022-07-26T09:26:30;99585.56;;;29.87;29.69
50349;BME280;36250;48.740;22.174;2022-07-26T09:29:05;99583.53;;;29.96;30.67
50349;BME280;36250;48.740;22.174;2022-07-26T09:31:31;99583.25;;;30.10;30.74
50349;BME280;36250;48.740;22.174;2022-07-26T09:33:56;99584.44;;;30.21;30.37
50349;BME280;36250;48.740;22.174;2022-07-26T09:36:23;99580.91;;;30.33;29.49
50349;BME280;36250;48.740;22.174;2022-07-26T09:38:49;99579.31;;;30.32;29.58
50349;BME280;36250;48.740;22.174;2022-07-26T09:41:35;99571.00;;;30.41;30.58
50349;BME280;36250;48.740;22.174;2022-07-26T09:44:01;99579.59;;;30.64;30.02
50349;BME280;36250;48.740;22.174;2022-07-26T09:46:27;99569.22;;;30.83;29.58
50349;BME280;36250;48.740;22.174;2022-07-26T09:48:53;99560.69;;;30.84;29.32
50349;BME280;36250;48.740;22.174;2022-07-26T09:51:40;99572.06;;;30.74;29.31
50349;BME280;36250;48.740;22.174;2022-07-26T09:54:07;99568.19;;;30.75;29.67
50349;BME280;36250;48.740;22.174;2022-07-26T09:56:40;99560.56;;;30.81;30.11
50349;BME280;36250;48.740;22.174;2022-07-26T09:59:05;99553.38;;;30.88;29.51
50349;BME280;36250;48.740;22.174;2022-07-26T10:01:30;99557.13;;;30.96;29.07
50349;BME280;36250;48.740;22.174;2022-07-26T10:03:56;99550.16;;;30.99;29.22
50349;BME280;36250;48.740;22.174;2022-07-26T10:06:21;99544.22;;;31.09;28.62
50349;BME280;36250;48.740;22.174;2022-07-26T10:08:46;99541.47;;;31.09;28.30
50349;BME280;36250;48.740;22.174;2022-07-26T10:11:11;99541.03;;;31.07;27.85
50349;BME280;36250;48.740;22.174;2022-07-26T10:13:37;99534.22;;;31.01;28.42
50349;BME280;36250;48.740;22.174;2022-07-26T10:16:03;99533.31;;;30.97;27.71
50349;BME280;36250;48.740;22.174;2022-07-26T10:20:59;99532.16;;;31.23;28.37
50349;BME280;36250;48.740;22.174;2022-07-26T10:23:42;99528.41;;;31.43;28.30
50349;BME280;36250;48.740;22.174;2022-07-26T10:26:09;99542.69;;;31.65;28.07
50349;BME280;36250;48.740;22.174;2022-07-26T10:28:35;99540.09;;;31.85;27.51
50349;BME280;36250;48.740;22.174;2022-07-26T10:33:45;99531.56;;;31.74;26.36
50349;BME280;36250;48.740;22.174;2022-07-26T10:36:28;99523.09;;;31.63;26.55
50349;BME280;36250;48.740;22.174;2022-07-26T10:39:00;99526.34;;;31.69;27.08
50349;BME280;36250;48.740;22.174;2022-07-26T10:41:40;99534.22;;;31.70;27.48
50349;BME280;36250;48.740;22.174;2022-07-26T10:44:19;99525.88;;;31.95;26.71
50349;BME280;36250;48.740;22.174;2022-07-26T10:49:20;99526.31;;;31.97;26.28
50349;BME280;36250;48.740;22.174;2022-07-26T10:51:52;99524.28;;;31.94;26.73
50349;BME280;36250;48.740;22.174;2022-07-26T10:54:28;99518.03;;;31.93;26.18
50349;BME280;36250;48.740;22.174;2022-07-26T10:56:53;99508.84;;;32.02;26.51
50349;BME280;36250;48.740;22.174;2022-07-26T10:59:29;99521.03;;;32.36;26.79
50349;BME280;36250;48.740;22.174;2022-07-26T11:01:55;99517.03;;;32.66;26.09
50349;BME280;36250;48.740;22.174;2022-07-26T11:04:20;99510.31;;;32.83;26.17
50349;BME280;36250;48.740;22.174;2022-07-26T11:06:46;99503.44;;;33.09;26.20
50349;BME280;36250;48.740;22.174;2022-07-26T11:09:12;99501.25;;;33.38;25.37
50349;BME280;36250;48.740;22.174;2022-07-26T11:11:37;99506.31;;;33.36;25.00
50349;BME280;36250;48.740;22.174;2022-07-26T11:14:06;99500.41;;;33.34;25.31
50349;BME280;36250;48.740;22.174;2022-07-26T11:16:48;99502.34;;;33.33;25.04
50349;BME280;36250;48.740;22.174;2022-07-26T11:19:15;99509.56;;;33.22;25.17
50349;BME280;36250;48.740;22.174;2022-07-26T11:21:41;99501.41;;;33.06;25.50
50349;BME280;36250;48.740;22.174;2022-07-26T11:24:06;99491.59;;;33.24;25.25
50349;BME280;36250;48.740;22.174;2022-07-26T11:26:32;99488.56;;;33.49;24.75
50349;BME280;36250;48.740;22.174;2022-07-26T11:29:04;99476.56;;;33.38;24.69
50349;BME280;36250;48.740;22.174;2022-07-26T11:31:42;99490.53;;;33.49;24.78
50349;BME280;36250;48.740;22.174;2022-07-26T11:34:08;99480.56;;;33.64;24.64
50349;BME280;36250;48.740;22.174;2022-07-26T11:36:41;99477.03;;;33.87;24.97
50349;BME280;36250;48.740;22.174;2022-07-26T11:39:07;99474.22;;;34.06;25.33
50349;BME280;36250;48.740;22.174;2022-07-26T11:41:33;99472.88;;;34.20;24.97
50349;BME280;36250;48.740;22.174;2022-07-26T11:43:59;99469.91;;;34.32;24.58
50349;BME280;36250;48.740;22.174;2022-07-26T11:46:31;99474.75;;;34.39;24.15
50349;BME280;36250;48.740;22.174;2022-07-26T11:48:57;99464.59;;;34.43;23.65
50349;BME280;36250;48.740;22.174;2022-07-26T11:51:23;99469.53;;;34.57;24.26
50349;BME280;36250;48.740;22.174;2022-07-26T11:53:49;99458.84;;;34.83;23.83
50349;BME280;36250;48.740;22.174;2022-07-26T11:58:41;99453.28;;;35.09;23.79
50349;BME280;36250;48.740;22.174;2022-07-26T12:01:07;99444.06;;;34.94;23.47
50349;BME280;36250;48.740;22.174;2022-07-26T12:03:33;99442.38;;;34.56;22.97
50349;BME280;36250;48.740;22.174;2022-07-26T12:06:02;99445.91;;;34.02;23.44
50349;BME280;36250;48.740;22.174;2022-07-26T12:08:37;99437.34;;;33.37;24.07
50349;BME280;36250;48.740;22.174;2022-07-26T12:11:03;99439.78;;;33.00;24.75
50349;BME280;36250;48.740;22.174;2022-07-26T12:13:28;99438.75;;;32.69;26.14
50349;BME280;36250;48.740;22.174;2022-07-26T12:15:53;99431.81;;;32.55;25.99
50349;BME280;36250;48.740;22.174;2022-07-26T12:21:03;99433.44;;;32.40;26.60
50349;BME280;36250;48.740;22.174;2022-07-26T12:23:42;99432.81;;;32.47;26.61
50349;BME280;36250;48.740;22.174;2022-07-26T12:29:02;99427.72;;;32.65;26.79
50349;BME280;36250;48.740;22.174;2022-07-26T12:31:58;99427.06;;;32.72;26.25
50349;BME280;36250;48.740;22.174;2022-07-26T12:34:24;99424.75;;;32.74;26.20
50349;BME280;36250;48.740;22.174;2022-07-26T12:36:49;99418.78;;;32.88;25.50
50349;BME280;36250;48.740;22.174;2022-07-26T12:39:19;99420.84;;;33.14;25.34
50349;BME280;36250;48.740;22.174;2022-07-26T12:41:45;99422.56;;;33.22;25.64
50349;BME280;36250;48.740;22.174;2022-07-26T12:44:16;99427.59;;;33.40;25.82
50349;BME280;36250;48.740;22.174;2022-07-26T12:46:41;99420.75;;;33.50;24.51
50349;BME280;36250;48.740;22.174;2022-07-26T12:49:08;99414.56;;;33.57;24.93
50349;BME280;36250;48.740;22.174;2022-07-26T12:51:34;99412.41;;;33.66;24.80
50349;BME280;36250;48.740;22.174;2022-07-26T12:53:59;99403.22;;;33.81;25.04
50349;BME280;36250;48.740;22.174;2022-07-26T12:56:24;99406.88;;;33.89;24.69
50349;BME280;36250;48.740;22.174;2022-07-26T12:58:49;99406.38;;;34.07;24.55
50349;BME280;36250;48.740;22.174;2022-07-26T13:01:15;99405.13;;;34.04;24.16